Time;durP1;ratioP1;P1;durP2;ratioP2;P2;SDS_P1;SDS_P2;PMS_P1;PMS_P2;Temp;Humidity;BMP_temperature;BMP_pressure;BME280_temperature;BME280_humidity;BME280_pressure;Samples;Min_cycle;Max_cycle;Signal;HPM_P1;HPM_P2
2022/05/26 00:00:39;;;;;;;3.28;1.90;;;15.10;51.10;;;;;;592322;240;26944;-68
2022/05/26 00:03:06;;;;;;;2.22;1.73;;;15.10;51.30;;;;;;594292;240;26665;-68
2022/05/26 00:05:33;;;;;;;1.75;1.65;;;15.10;51.30;;;;;;596222;239;26886;-68
2022/05/26 00:08:00;;;;;;;7.03;1.73;;;15.10;51.10;;;;;;593854;236;26608;-68
2022/05/26 00:10:27;;;;;;;2.03;1.67;;;15.20;51.20;;;;;;592511;240;26865;-68
2022/05/26 00:12:54;;;;;;;3.58;1.30;;;15.20;51.20;;;;;;591728;240;26598;-68
2022/05/26 00:15:22;;;;;;;2.00;1.73;;;15.20;50.90;;;;;;593814;239;26880;-68
2022/05/26 00:17:49;;;;;;;1.50;1.40;;;15.30;50.70;;;;;;594197;240;26620;-68
2022/05/26 00:20:16;;;;;;;2.40;1.65;;;15.30;50.60;;;;;;592477;239;26871;-68
2022/05/26 00:22:44;;;;;;;2.45;1.48;;;15.40;50.70;;;;;;595161;240;26647;-68
2022/05/26 00:25:13;;;;;;;1.55;1.45;;;15.40;50.50;;;;;;593414;240;26695;-68
2022/05/26 00:27:40;;;;;;;1.35;1.25;;;15.40;50.50;;;;;;593643;240;26652;-68
2022/05/26 00:30:10;;;;;;;3.47;1.48;;;15.30;50.70;;;;;;599506;239;26807;-68
2022/05/26 00:32:37;;;;;;;2.20;1.52;;;15.30;50.60;;;;;;599608;239;26610;-68
2022/05/26 00:35:05;;;;;;;1.80;1.70;;;15.30;50.50;;;;;;590543;240;26873;-68
2022/05/26 00:37:34;;;;;;;1.90;1.70;;;15.30;50.90;;;;;;593198;239;26624;-68
2022/05/26 00:40:01;;;;;;;1.67;1.50;;;15.30;50.40;;;;;;606284;235;26605;-68
2022/05/26 00:42:29;;;;;;;1.62;1.50;;;15.30;50.40;;;;;;606118;236;26581;-67
2022/05/26 00:44:55;;;;;;;2.65;1.30;;;15.40;51.00;;;;;;602506;237;26633;-69
2022/05/26 00:47:23;;;;;;;1.67;1.33;;;15.40;50.80;;;;;;603932;237;26834;-68
2022/05/26 00:49:52;;;;;;;1.83;1.55;;;15.30;50.50;;;;;;602098;236;26606;-69
2022/05/26 00:52:19;;;;;;;1.87;1.60;;;15.40;50.50;;;;;;607583;236;26550;-69
2022/05/26 00:54:47;;;;;;;1.52;1.37;;;15.40;50.50;;;;;;603756;236;26585;-68
2022/05/26 00:57:18;;;;;;;1.52;1.42;;;15.40;50.70;;;;;;602018;237;26605;-69
2022/05/26 00:59:47;;;;;;;1.62;1.37;;;15.50;50.30;;;;;;601856;238;26631;-68
2022/05/26 01:02:14;;;;;;;4.05;1.35;;;15.50;50.30;;;;;;607603;236;26553;-67
2022/05/26 01:04:41;;;;;;;1.45;1.35;;;15.50;50.50;;;;;;609138;235;26612;-68
2022/05/26 01:07:08;;;;;;;1.52;1.42;;;15.60;50.50;;;;;;606152;234;26582;-67
2022/05/26 01:09:36;;;;;;;3.00;1.37;;;15.60;50.00;;;;;;611867;234;26623;-67
2022/05/26 01:12:06;;;;;;;1.33;1.30;;;15.70;50.30;;;;;;604916;235;26634;-67
2022/05/26 01:14:34;;;;;;;1.30;1.20;;;15.60;50.40;;;;;;602276;237;26678;-69
2022/05/26 01:17:07;;;;;;;3.47;1.60;;;15.70;50.20;;;;;;602676;236;26859;-68
2022/05/26 01:19:57;;;;;;;1.00;1.00;;;15.70;50.10;;;;;;609678;232;26858;-67
2022/05/26 01:22:35;;;;;;;1.30;1.20;;;15.60;50.20;;;;;;604899;236;26604;-68
2022/05/26 01:25:18;;;;;;;3.62;1.40;;;15.70;49.80;;;;;;605937;235;26840;-68
2022/05/26 01:27:45;;;;;;;1.42;1.33;;;15.70;49.80;;;;;;605170;237;26602;-68
2022/05/26 01:30:20;;;;;;;1.50;1.30;;;15.70;50.00;;;;;;602742;237;27222;-67
2022/05/26 01:32:53;;;;;;;4.43;1.33;;;15.60;49.90;;;;;;605435;236;26596;-68
2022/05/26 01:35:23;;;;;;;1.70;1.15;;;15.60;49.90;;;;;;609633;236;26588;-61
2022/05/26 01:38:00;;;;;;;1.17;1.17;;;15.60;50.20;;;;;;609127;235;26633;-62
2022/05/26 01:40:32;;;;;;;1.25;1.20;;;15.60;50.20;;;;;;605660;235;27160;-61
2022/05/26 01:43:16;;;;;;;1.23;1.23;;;15.70;50.10;;;;;;606605;233;26804;-61
2022/05/26 01:45:59;;;;;;;0.93;0.93;;;15.70;50.10;;;;;;603515;238;26585;-61
2022/05/26 01:48:28;;;;;;;2.00;1.27;;;15.70;50.20;;;;;;602570;236;26660;-61
2022/05/26 01:51:01;;;;;;;2.42;1.20;;;15.60;50.70;;;;;;610376;234;26657;-61
2022/05/26 01:53:28;;;;;;;1.50;1.40;;;15.60;50.40;;;;;;607910;236;26629;-61
2022/05/26 01:55:59;;;;;;;1.05;1.05;;;15.50;50.40;;;;;;600717;234;26873;-62
2022/05/26 01:58:27;;;;;;;2.45;1.30;;;15.50;50.50;;;;;;602475;235;26642;-62
2022/05/26 02:00:54;;;;;;;0.93;0.90;;;15.50;50.60;;;;;;602346;236;26855;-61
2022/05/26 02:03:22;;;;;;;1.20;1.10;;;15.50;50.60;;;;;;606316;235;26671;-61
2022/05/26 02:05:52;;;;;;;1.33;1.02;;;15.60;50.60;;;;;;608242;235;26888;-61
2022/05/26 02:08:22;;;;;;;1.25;1.20;;;15.60;50.90;;;;;;602659;238;26617;-61
2022/05/26 02:10:50;;;;;;;1.00;0.90;;;15.60;50.80;;;;;;604299;236;26604;-61
2022/05/26 02:13:18;;;;;;;1.52;1.12;;;15.60;51.00;;;;;;603678;236;26586;-61
2022/05/26 02:15:48;;;;;;;1.42;0.93;;;15.60;50.60;;;;;;602063;233;26982;-61
2022/05/26 02:18:20;;;;;;;1.80;1.10;;;15.60;50.50;;;;;;602930;235;26599;-71
2022/05/26 02:20:49;;;;;;;1.83;0.80;;;15.60;50.40;;;;;;606723;235;26591;-72
2022/05/26 02:23:26;;;;;;;1.48;1.10;;;15.60;50.40;;;;;;611284;234;26645;-71
2022/05/26 02:25:50;;;;;;;1.30;1.15;;;15.60;50.40;;;;;;602488;235;26824;-71
2022/05/26 02:28:18;;;;;;;1.15;1.10;;;15.60;50.90;;;;;;602670;236;26586;-71
2022/05/26 02:30:45;;;;;;;1.40;1.20;;;15.60;50.30;;;;;;602657;236;26795;-71
2022/05/26 02:33:12;;;;;;;0.90;0.90;;;15.60;50.30;;;;;;603723;237;26642;-71
2022/05/26 02:35:39;;;;;;;1.00;0.90;;;15.60;50.30;;;;;;609146;236;26834;-61
2022/05/26 02:38:07;;;;;;;1.45;0.90;;;15.60;50.30;;;;;;603248;238;26539;-61
2022/05/26 02:40:34;;;;;;;1.10;1.00;;;15.60;50.40;;;;;;606985;236;26561;-62
2022/05/26 02:43:02;;;;;;;2.12;1.00;;;15.70;50.30;;;;;;607959;235;26698;-61
2022/05/26 02:45:35;;;;;;;0.90;0.90;;;15.60;50.30;;;;;;605297;236;26591;-61
2022/05/26 02:48:13;;;;;;;0.90;0.90;;;15.70;50.10;;;;;;603360;238;26582;-61
2022/05/26 02:50:43;;;;;;;0.95;0.90;;;15.70;50.10;;;;;;605396;236;26576;-61
2022/05/26 02:53:30;;;;;;;1.90;0.90;;;15.70;50.50;;;;;;604823;236;26573;-61
2022/05/26 02:56:02;;;;;;;1.20;1.10;;;15.70;50.20;;;;;;610120;235;26550;-61
2022/05/26 02:58:57;;;;;;;2.03;1.12;;;15.80;50.30;;;;;;603784;238;26560;-61
2022/05/26 03:01:24;;;;;;;2.22;0.95;;;15.80;50.30;;;;;;604186;235;26597;-62
2022/05/26 03:03:54;;;;;;;0.75;0.75;;;15.80;50.30;;;;;;607402;235;26608;-60
2022/05/26 03:06:29;;;;;;;1.42;1.02;;;15.90;50.60;;;;;;604962;235;26623;-61
2022/05/26 03:08:56;;;;;;;1.10;0.80;;;15.90;50.40;;;;;;608150;234;26831;-61
2022/05/26 03:11:24;;;;;;;1.20;1.10;;;15.90;50.40;;;;;;604723;236;26601;-61
2022/05/26 03:13:51;;;;;;;1.00;0.90;;;15.90;50.40;;;;;;605375;236;26857;-61
2022/05/26 03:16:18;;;;;;;1.80;0.98;;;15.90;50.50;;;;;;604945;235;26646;-61
2022/05/26 03:18:45;;;;;;;1.12;0.90;;;15.90;50.40;;;;;;602754;236;26839;-61
2022/05/26 03:21:12;;;;;;;0.95;0.90;;;16.00;50.70;;;;;;603528;237;26585;-61
2022/05/26 03:23:40;;;;;;;1.85;1.02;;;16.00;50.60;;;;;;601514;237;26668;-61
2022/05/26 03:26:07;;;;;;;2.08;0.90;;;15.90;50.60;;;;;;603704;236;26639;-61
2022/05/26 03:28:35;;;;;;;0.80;0.80;;;15.90;50.70;;;;;;605116;235;26590;-61
2022/05/26 03:31:05;;;;;;;0.85;0.85;;;15.90;50.90;;;;;;606512;232;26619;-61
2022/05/26 03:40:46;;;;;;;1.92;1.00;;;15.90;50.90;;;;;;607715;234;27235;-61
2022/05/26 03:41:07;;;;;;;0.88;0.85;;;16.00;51.00;;;;;;603034;236;26920;-62
2022/05/26 03:43:43;;;;;;;0.95;0.85;;;16.00;51.10;;;;;;603036;235;26569;-61
2022/05/26 03:46:11;;;;;;;0.80;0.80;;;16.00;51.00;;;;;;605050;238;26871;-62
2022/05/26 03:48:40;;;;;;;1.17;1.08;;;16.10;51.10;;;;;;604510;236;26601;-61
2022/05/26 03:51:06;;;;;;;2.00;0.90;;;16.10;51.30;;;;;;608433;236;26650;-62
2022/05/26 03:53:34;;;;;;;1.20;0.93;;;16.00;50.80;;;;;;604639;237;26617;-62
2022/05/26 03:56:01;;;;;;;0.80;0.80;;;16.10;51.10;;;;;;605212;235;26550;-65
2022/05/26 03:58:28;;;;;;;0.90;0.90;;;16.10;50.90;;;;;;601961;236;26861;-64
2022/05/26 04:00:55;;;;;;;2.25;0.95;;;16.20;50.90;;;;;;604417;235;26620;-65
2022/05/26 04:03:22;;;;;;;0.82;0.82;;;16.20;50.80;;;;;;605235;236;26858;-65
2022/05/26 04:05:50;;;;;;;0.98;0.98;;;16.20;51.00;;;;;;605355;236;26584;-65
2022/05/26 04:08:17;;;;;;;1.05;0.95;;;16.20;50.90;;;;;;608382;231;26819;-65
2022/05/26 04:10:44;;;;;;;1.23;0.88;;;16.20;51.00;;;;;;605560;236;26634;-65
2022/05/26 04:13:11;;;;;;;0.80;0.80;;;16.20;51.10;;;;;;604866;235;27966;-65
2022/05/26 04:15:38;;;;;;;0.98;0.88;;;16.10;51.20;;;;;;602836;236;26641;-65
2022/05/26 04:18:06;;;;;;;1.00;0.98;;;16.10;51.40;;;;;;605264;236;26596;-65
2022/05/26 04:20:34;;;;;;;1.58;0.80;;;16.10;51.70;;;;;;608806;236;26613;-65
2022/05/26 04:23:02;;;;;;;0.80;0.80;;;16.10;51.80;;;;;;605460;234;26604;-65
2022/05/26 04:25:30;;;;;;;1.75;1.00;;;16.10;52.00;;;;;;608187;235;26673;-65
2022/05/26 04:27:58;;;;;;;0.80;0.80;;;16.10;52.50;;;;;;605029;236;26597;-65
2022/05/26 04:30:25;;;;;;;0.90;0.90;;;16.10;52.10;;;;;;604277;236;26639;-65
2022/05/26 04:32:52;;;;;;;1.33;0.98;;;16.10;52.30;;;;;;603215;236;26590;-65
2022/05/26 04:35:19;;;;;;;1.27;0.70;;;16.10;52.40;;;;;;604882;236;27342;-65
2022/05/26 04:37:46;;;;;;;0.90;0.90;;;16.10;52.50;;;;;;606950;236;26631;-65
2022/05/26 04:40:13;;;;;;;0.88;0.88;;;16.20;52.60;;;;;;601947;235;26871;-66
2022/05/26 04:42:41;;;;;;;1.45;0.88;;;16.20;52.70;;;;;;607959;234;26611;-65
2022/05/26 04:45:09;;;;;;;1.55;1.00;;;16.20;52.90;;;;;;603823;234;26847;-65
2022/05/26 04:47:37;;;;;;;1.05;1.00;;;16.30;53.20;;;;;;606152;234;26579;-65
2022/05/26 04:50:06;;;;;;;0.70;0.70;;;16.30;53.30;;;;;;603098;234;26595;-64
2022/05/26 04:52:33;;;;;;;0.98;0.70;;;16.20;53.60;;;;;;602071;237;26603;-65
2022/05/26 04:55:01;;;;;;;1.62;0.85;;;16.40;53.30;;;;;;604567;238;26686;-65
2022/05/26 04:57:28;;;;;;;4.45;1.00;;;16.40;53.30;;;;;;605015;237;26612;-65
2022/05/26 04:59:56;;;;;;;1.42;0.90;;;16.40;54.00;;;;;;604119;236;26886;-65
2022/05/26 05:02:23;;;;;;;1.17;0.90;;;16.40;53.70;;;;;;605833;235;26810;-65
2022/05/26 05:04:50;;;;;;;2.87;1.12;;;16.50;53.60;;;;;;604274;234;26622;-65
2022/05/26 05:07:17;;;;;;;0.70;0.70;;;16.40;53.70;;;;;;603828;236;26978;-65
2022/05/26 05:09:45;;;;;;;0.90;0.90;;;16.40;53.70;;;;;;604136;236;26613;-65
2022/05/26 05:12:12;;;;;;;0.93;0.75;;;16.40;53.80;;;;;;603845;236;26832;-65
2022/05/26 05:14:40;;;;;;;1.10;1.10;;;16.30;54.00;;;;;;602606;234;26614;-65
2022/05/26 05:17:08;;;;;;;0.90;0.90;;;16.10;54.50;;;;;;607561;236;26679;-65
2022/05/26 05:19:36;;;;;;;1.70;1.02;;;16.10;54.80;;;;;;603716;236;26554;-65
2022/05/26 05:22:05;;;;;;;0.93;0.90;;;16.10;55.00;;;;;;592411;239;26841;-65
2022/05/26 05:24:34;;;;;;;1.62;0.95;;;16.10;55.00;;;;;;603983;233;26618;-65
2022/05/26 05:27:01;;;;;;;1.95;0.80;;;16.10;55.00;;;;;;601998;236;27307;-66
2022/05/26 05:29:29;;;;;;;0.90;0.88;;;16.20;55.00;;;;;;603878;236;26603;-65
2022/05/26 05:31:56;;;;;;;1.15;1.05;;;16.30;54.90;;;;;;605688;232;26853;-65
2022/05/26 05:34:27;;;;;;;1.48;0.80;;;16.50;54.90;;;;;;605152;235;26656;-65
2022/05/26 05:36:56;;;;;;;1.00;0.88;;;16.50;54.90;;;;;;604828;236;26576;-65
2022/05/26 05:39:21;;;;;;;1.48;0.82;;;16.50;55.00;;;;;;607027;235;26995;-65
2022/05/26 05:41:48;;;;;;;0.93;0.88;;;16.70;55.10;;;;;;607556;235;26632;-71
2022/05/26 05:44:15;;;;;;;2.90;1.10;;;16.90;55.00;;;;;;603207;233;27323;-68
2022/05/26 05:49:16;;;;;;;1.58;1.05;;;17.20;54.80;;;;;;605285;235;26652;-68
2022/05/26 05:51:44;;;;;;;1.05;0.95;;;17.40;54.80;;;;;;603289;235;26607;-68
2022/05/26 05:54:11;;;;;;;1.00;1.00;;;17.20;54.90;;;;;;606296;235;26634;-68
2022/05/26 05:56:39;;;;;;;1.05;1.00;;;17.20;54.90;;;;;;607359;234;26643;-68
2022/05/26 05:59:07;;;;;;;1.17;0.93;;;17.20;55.20;;;;;;610389;234;26582;-68
2022/05/26 06:01:35;;;;;;;2.08;0.90;;;17.20;55.00;;;;;;605475;235;26594;-68
2022/05/26 06:04:02;;;;;;;0.90;0.90;;;17.20;55.20;;;;;;610430;235;26580;-68
2022/05/26 06:06:29;;;;;;;1.90;1.17;;;17.20;55.30;;;;;;607473;235;26590;-69
2022/05/26 06:08:56;;;;;;;0.90;0.90;;;17.30;55.30;;;;;;607950;236;26583;-68
2022/05/26 06:11:23;;;;;;;0.90;0.90;;;17.40;55.30;;;;;;604114;236;26835;-68
2022/05/26 06:13:51;;;;;;;1.00;1.00;;;17.40;55.40;;;;;;603857;235;26603;-68
2022/05/26 06:16:18;;;;;;;1.20;1.10;;;17.40;55.50;;;;;;609841;236;26896;-68
2022/05/26 06:18:46;;;;;;;1.02;0.93;;;17.50;55.40;;;;;;604660;236;26600;-68
2022/05/26 06:21:12;;;;;;;1.40;1.00;;;17.60;55.10;;;;;;607018;236;26867;-68
2022/05/26 06:23:39;;;;;;;2.50;1.05;;;17.60;55.20;;;;;;605370;235;26618;-68
2022/05/26 06:26:07;;;;;;;1.05;0.80;;;17.40;55.50;;;;;;604431;236;26850;-67
2022/05/26 06:31:07;;;;;;;48.05;9.73;;;17.60;55.90;;;;;;610606;234;26820;-65
2022/05/26 06:38:40;;;;;;;17.80;5.12;;;17.60;56.10;;;;;;603997;236;26595;-65
2022/05/26 06:43:42;;;;;;;9.02;2.95;;;17.20;57.00;;;;;;606882;235;26669;-66
2022/05/26 06:46:09;;;;;;;4.95;1.65;;;17.20;57.00;;;;;;606231;230;26843;-66
2022/05/26 06:48:36;;;;;;;2.20;1.42;;;17.20;57.20;;;;;;604463;236;26642;-66
2022/05/26 06:51:05;;;;;;;2.55;1.27;;;17.20;57.20;;;;;;607885;235;26871;-66
2022/05/26 06:53:32;;;;;;;3.67;1.37;;;17.50;57.10;;;;;;604026;234;26661;-66
2022/05/26 06:56:00;;;;;;;2.33;1.50;;;17.40;57.10;;;;;;604438;236;26669;-66
2022/05/26 06:58:27;;;;;;;3.22;1.30;;;17.20;57.30;;;;;;603054;235;26616;-66
2022/05/26 07:00:55;;;;;;;2.60;1.35;;;17.10;58.50;;;;;;604159;235;26889;-66
2022/05/26 07:03:22;;;;;;;3.17;1.52;;;17.10;58.40;;;;;;604268;236;26850;-67
2022/05/26 07:05:50;;;;;;;2.30;1.45;;;16.90;58.80;;;;;;605807;235;26587;-67
2022/05/26 07:08:17;;;;;;;3.42;1.60;;;16.90;59.20;;;;;;606261;234;26801;-67
2022/05/26 07:10:46;;;;;;;2.15;1.20;;;16.70;59.60;;;;;;608840;234;26671;-67
2022/05/26 07:13:12;;;;;;;1.23;1.12;;;16.70;60.50;;;;;;605313;237;26878;-67
2022/05/26 07:15:39;;;;;;;2.45;1.27;;;16.50;61.50;;;;;;605210;237;26637;-67
2022/05/26 07:18:06;;;;;;;3.80;1.50;;;16.40;62.90;;;;;;605104;238;26864;-67
2022/05/26 07:20:33;;;;;;;1.35;1.25;;;16.20;64.10;;;;;;605192;238;26627;-68
2022/05/26 07:23:01;;;;;;;4.15;1.40;;;14.70;87.40;;;;;;605018;237;26631;-68
2022/05/26 07:25:30;;;;;;;3.53;1.40;;;14.40;93.20;;;;;;604879;237;26583;-67
2022/05/26 07:27:58;;;;;;;1.70;1.20;;;14.30;94.40;;;;;;604837;237;26575;-68
2022/05/26 07:30:26;;;;;;;2.47;1.65;;;14.30;94.40;;;;;;604925;238;26579;-68
2022/05/26 07:32:53;;;;;;;1.73;1.10;;;14.20;95.40;;;;;;604884;234;26589;-68
2022/05/26 07:35:20;;;;;;;1.52;1.30;;;14.20;96.70;;;;;;604883;237;26591;-74
2022/05/26 07:42:55;;;;;;;1.30;1.20;;;14.30;99.20;;;;;;604331;238;26558;-77
2022/05/26 07:45:22;;;;;;;3.35;1.50;;;14.40;99.00;;;;;;602636;235;26604;-76
2022/05/26 07:47:50;;;;;;;1.30;1.10;;;14.40;99.00;;;;;;601492;237;26631;-75
2022/05/26 07:50:20;;;;;;;2.53;1.40;;;14.70;98.60;;;;;;601467;238;26650;-74
2022/05/26 07:52:47;;;;;;;5.10;1.37;;;15.10;98.30;;;;;;606408;235;26584;-75
2022/05/26 07:55:14;;;;;;;2.15;1.20;;;15.40;97.50;;;;;;601971;236;26632;-74
2022/05/26 07:57:42;;;;;;;1.10;1.10;;;15.60;95.40;;;;;;602498;236;26861;-75
2022/05/26 08:00:09;;;;;;;4.32;2.08;;;15.70;94.40;;;;;;604303;232;26570;-75
2022/05/26 08:02:37;;;;;;;2.72;1.58;;;16.10;93.70;;;;;;604895;235;26667;-75
2022/05/26 08:05:06;;;;;;;1.50;1.40;;;16.30;92.20;;;;;;604700;235;26675;-75
2022/05/26 08:07:33;;;;;;;1.27;1.20;;;16.30;92.20;;;;;;606788;235;26644;-75
2022/05/26 08:10:01;;;;;;;4.32;1.10;;;16.40;91.30;;;;;;604134;235;26848;-75
2022/05/26 08:12:28;;;;;;;2.33;1.52;;;16.60;90.50;;;;;;604610;237;26578;-76
2022/05/26 08:14:55;;;;;;;1.35;1.25;;;16.70;90.90;;;;;;604642;238;26846;-76
2022/05/26 08:17:23;;;;;;;1.70;1.52;;;17.00;89.90;;;;;;605671;235;26576;-76
2022/05/26 08:19:49;;;;;;;4.65;1.62;;;17.00;89.70;;;;;;605817;236;26845;-76
2022/05/26 08:22:18;;;;;;;3.83;1.55;;;17.10;88.00;;;;;;605499;236;26598;-75
2022/05/26 08:24:51;;;;;;;6.35;1.65;;;17.30;84.30;;;;;;603648;235;26590;-70
2022/05/26 08:27:19;;;;;;;4.60;1.60;;;17.40;85.90;;;;;;606915;233;26586;-75
2022/05/26 08:29:47;;;;;;;3.03;1.77;;;17.40;86.00;;;;;;603500;236;26618;-73
2022/05/26 08:32:16;;;;;;;4.93;1.27;;;17.30;83.30;;;;;;613179;233;26579;-73
2022/05/26 08:34:43;;;;;;;5.18;1.92;;;17.20;83.10;;;;;;603919;237;26847;-73
2022/05/26 08:37:13;;;;;;;2.28;1.65;;;17.50;82.80;;;;;;606039;236;26573;-73
2022/05/26 08:39:40;;;;;;;8.20;1.87;;;17.50;82.40;;;;;;603648;236;26589;-77
2022/05/26 08:42:07;;;;;;;3.70;1.67;;;17.50;82.70;;;;;;605957;235;26827;-77
2022/05/26 08:44:34;;;;;;;8.05;1.92;;;17.60;79.20;;;;;;601678;237;26622;-75
2022/05/26 08:47:12;;;;;;;3.80;1.73;;;17.70;78.10;;;;;;602134;237;26809;-75
2022/05/26 08:49:41;;;;;;;1.77;1.50;;;18.00;76.30;;;;;;602109;239;26550;-73
2022/05/26 08:52:13;;;;;;;1.42;1.33;;;18.10;74.20;;;;;;602108;236;26545;-74
2022/05/26 08:54:46;;;;;;;3.12;1.42;;;18.40;74.10;;;;;;602504;236;26630;-79
2022/05/26 08:57:15;;;;;;;6.45;1.48;;;18.90;73.00;;;;;;602533;238;26588;-79
2022/05/26 08:59:44;;;;;;;2.17;1.30;;;18.40;68.90;;;;;;601437;237;26649;-80
2022/05/26 09:02:26;;;;;;;4.18;1.40;;;18.70;67.60;;;;;;601784;238;26881;-76
2022/05/26 09:04:54;;;;;;;7.93;1.98;;;18.60;65.30;;;;;;601869;234;26634;-71
2022/05/26 09:15:02;;;;;;;4.12;1.40;;;19.10;62.80;;;;;;612382;234;26888;-70
2022/05/26 09:17:30;;;;;;;4.78;1.30;;;19.30;62.20;;;;;;604713;235;26643;-70
2022/05/26 09:19:58;;;;;;;1.48;1.37;;;19.40;61.10;;;;;;604185;237;26849;-72
2022/05/26 09:22:27;;;;;;;2.58;1.10;;;19.70;59.50;;;;;;601451;237;26647;-72
2022/05/26 09:24:54;;;;;;;3.03;1.00;;;19.60;59.40;;;;;;601358;236;26659;-71
2022/05/26 09:27:23;;;;;;;1.25;0.80;;;19.90;58.70;;;;;;601824;239;27144;-71
2022/05/26 09:29:51;;;;;;;3.78;1.37;;;20.20;57.60;;;;;;603033;237;26841;-75
2022/05/26 09:32:18;;;;;;;1.85;0.98;;;20.30;57.70;;;;;;604304;235;26622;-75
2022/05/26 09:35:01;;;;;;;1.17;0.98;;;20.20;57.40;;;;;;607394;235;27409;-75
2022/05/26 09:37:43;;;;;;;0.90;0.90;;;19.80;58.00;;;;;;601048;237;26646;-74
2022/05/26 09:40:18;;;;;;;1.27;0.88;;;19.40;57.80;;;;;;604645;236;26662;-73
2022/05/26 09:42:46;;;;;;;1.25;1.10;;;18.80;59.10;;;;;;608231;236;26566;-74
2022/05/26 09:45:14;;;;;;;0.85;0.85;;;18.60;59.70;;;;;;603177;236;26597;-74
2022/05/26 09:47:54;;;;;;;1.10;0.95;;;18.60;59.70;;;;;;608693;236;26857;-72
2022/05/26 09:50:33;;;;;;;1.55;0.90;;;18.50;59.30;;;;;;610150;235;26597;-75
2022/05/26 09:53:00;;;;;;;2.40;1.02;;;18.50;59.20;;;;;;601792;239;26573;-75
2022/05/26 09:55:28;;;;;;;2.08;1.20;;;18.90;58.70;;;;;;601736;236;26593;-74
2022/05/26 09:58:06;;;;;;;9.25;3.37;;;19.30;57.60;;;;;;608643;236;26602;-72
2022/05/26 10:00:34;;;;;;;65.45;21.20;;;19.20;57.60;;;;;;602802;237;26908;-76
2022/05/26 10:03:02;;;;;;;60.55;18.92;;;19.40;57.30;;;;;;604569;238;27481;-73
2022/05/26 10:05:37;;;;;;;49.10;16.08;;;19.70;56.90;;;;;;601990;236;26584;-76
2022/05/26 10:08:08;;;;;;;40.50;13.32;;;19.90;56.30;;;;;;603980;236;26630;-74
2022/05/26 10:10:41;;;;;;;38.78;11.12;;;19.70;56.40;;;;;;603856;236;26799;-76
2022/05/26 10:13:13;;;;;;;26.17;9.63;;;19.40;56.60;;;;;;605113;236;26631;-76
2022/05/26 10:15:58;;;;;;;25.05;8.70;;;19.20;56.40;;;;;;609921;235;26603;-73
2022/05/26 10:18:35;;;;;;;28.15;9.88;;;19.10;56.80;;;;;;607030;235;26678;-72
2022/05/26 10:21:11;;;;;;;20.15;7.47;;;19.10;56.70;;;;;;603020;237;26649;-76
2022/05/26 10:23:39;;;;;;;21.80;8.18;;;19.00;57.00;;;;;;608990;234;26883;-77
2022/05/26 10:26:07;;;;;;;17.55;7.37;;;18.80;57.90;;;;;;607020;236;26554;-75
2022/05/26 10:28:55;;;;;;;15.88;6.78;;;18.40;58.50;;;;;;601042;236;26637;-76
2022/05/26 10:31:33;;;;;;;20.37;6.65;;;18.30;59.00;;;;;;610243;234;26617;-74
2022/05/26 10:34:23;;;;;;;18.40;6.40;;;18.50;59.20;;;;;;602093;234;27170;-72
2022/05/26 10:36:50;;;;;;;17.55;7.15;;;18.60;58.60;;;;;;606173;235;26646;-72
2022/05/26 10:39:20;;;;;;;20.30;8.52;;;18.60;58.50;;;;;;609772;233;26834;-71
2022/05/26 10:41:50;;;;;;;22.15;9.00;;;19.00;58.50;;;;;;603835;235;26589;-73
2022/05/26 10:44:23;;;;;;;26.35;12.93;;;19.00;58.00;;;;;;609521;233;26659;-72
2022/05/26 10:47:06;;;;;;;30.20;14.55;;;18.70;58.10;;;;;;605611;235;26649;-71
2022/05/26 10:49:38;;;;;;;41.05;18.55;;;18.60;57.70;;;;;;606246;235;26634;-74
2022/05/26 10:52:18;;;;;;;38.92;15.45;;;18.80;57.50;;;;;;604370;238;26636;-71
2022/05/26 10:54:47;;;;;;;27.87;14.25;;;19.80;56.00;;;;;;602935;235;26622;-75
2022/05/26 10:57:15;;;;;;;32.95;13.02;;;19.80;56.00;;;;;;604514;238;26637;-76
2022/05/26 10:59:45;;;;;;;25.95;11.63;;;20.60;54.50;;;;;;604230;236;26596;-74
2022/05/26 11:02:15;;;;;;;25.92;10.73;;;20.60;54.50;;;;;;611897;234;26591;-74
2022/05/26 11:04:50;;;;;;;25.00;11.10;;;20.50;54.20;;;;;;607460;235;26658;-75
2022/05/26 11:07:21;;;;;;;110.50;25.40;;;20.50;54.20;;;;;;605907;235;26969;-73
2022/05/26 11:09:56;;;;;;;122.53;30.17;;;20.80;54.10;;;;;;603330;238;26601;-73
2022/05/26 11:12:28;;;;;;;120.78;32.75;;;20.90;53.80;;;;;;604690;238;26833;-73
2022/05/26 11:17:36;;;;;;;119.25;27.02;;;21.30;53.10;;;;;;605245;235;26647;-73
2022/05/26 11:20:20;;;;;;;95.38;22.98;;;21.30;52.80;;;;;;609525;233;26552;-74
2022/05/26 11:22:49;;;;;;;52.62;15.75;;;21.30;52.10;;;;;;598360;238;26657;-74
2022/05/26 11:25:16;;;;;;;67.78;18.77;;;21.20;52.90;;;;;;604447;238;26599;-73
2022/05/26 11:27:44;;;;;;;59.67;17.37;;;21.00;52.60;;;;;;605800;236;26651;-72
2022/05/26 11:36:07;;;;;;;61.47;15.55;;;20.50;52.80;;;;;;612450;234;26596;-70
2022/05/26 11:38:02;;;;;;;30.20;11.70;;;20.20;53.40;;;;;;603926;237;26591;-75
2022/05/26 11:40:29;;;;;;;40.70;12.20;;;20.70;53.10;;;;;;601263;239;26645;-76
2022/05/26 11:42:58;;;;;;;43.15;13.32;;;21.00;52.40;;;;;;601675;238;26840;-74
2022/05/26 11:45:27;;;;;;;29.45;11.63;;;20.80;52.50;;;;;;603769;238;26614;-70
2022/05/26 11:47:58;;;;;;;38.55;14.00;;;20.70;52.80;;;;;;611320;235;26632;-76
2022/05/26 11:50:27;;;;;;;38.80;15.13;;;20.10;53.10;;;;;;606074;235;26566;-74
2022/05/26 11:52:57;;;;;;;30.65;12.45;;;19.70;53.00;;;;;;612954;232;26548;-74
2022/05/26 11:55:32;;;;;;;24.05;11.20;;;19.70;53.00;;;;;;605544;235;26585;-74
2022/05/26 11:58:13;;;;;;;29.48;10.52;;;20.00;52.60;;;;;;610767;234;26565;-75
2022/05/26 12:00:43;;;;;;;26.80;9.43;;;20.00;53.10;;;;;;604026;237;26559;-75
2022/05/26 12:03:29;;;;;;;25.48;9.73;;;20.00;53.10;;;;;;601894;236;26581;-74
2022/05/26 12:05:58;;;;;;;19.70;7.45;;;20.00;52.60;;;;;;602536;236;26568;-74
2022/05/26 12:08:28;;;;;;;19.17;8.90;;;20.00;52.40;;;;;;608034;236;26817;-74
2022/05/26 12:10:56;;;;;;;16.05;6.95;;;21.00;51.00;;;;;;603364;237;26581;-74
2022/05/26 12:13:27;;;;;;;16.48;6.85;;;21.00;51.00;;;;;;607216;236;26849;-74
2022/05/26 12:16:12;;;;;;;16.10;7.45;;;21.00;50.20;;;;;;602792;236;26808;-74
2022/05/26 12:18:46;;;;;;;16.25;6.53;;;20.80;49.90;;;;;;604604;236;26605;-74
2022/05/26 12:21:12;;;;;;;16.85;6.78;;;21.10;50.30;;;;;;604828;236;26596;-74
2022/05/26 12:23:39;;;;;;;11.52;5.97;;;21.20;49.70;;;;;;601678;236;26924;-74
2022/05/26 12:26:18;;;;;;;11.88;5.75;;;21.40;49.00;;;;;;604353;237;26575;-74
2022/05/26 12:28:45;;;;;;;13.95;6.03;;;21.70;48.60;;;;;;604882;236;26627;-74
2022/05/26 12:31:13;;;;;;;13.80;6.07;;;21.70;48.70;;;;;;604954;235;26650;-74
2022/05/26 12:34:02;;;;;;;10.18;5.18;;;22.00;48.70;;;;;;601487;238;26653;-74
2022/05/26 12:36:39;;;;;;;12.82;5.82;;;22.00;48.70;;;;;;607604;236;26595;-75
2022/05/26 12:39:06;;;;;;;13.38;5.60;;;22.30;48.20;;;;;;603213;232;26604;-75
2022/05/26 12:41:39;;;;;;;15.52;5.78;;;22.60;47.80;;;;;;603578;238;26807;-75
2022/05/26 12:44:39;;;;;;;10.77;5.07;;;23.20;47.30;;;;;;601487;238;26824;-75
2022/05/26 12:47:12;;;;;;;9.23;4.70;;;23.50;45.70;;;;;;601868;237;26937;-73
2022/05/26 12:50:02;;;;;;;9.23;4.90;;;23.60;44.70;;;;;;605791;235;26571;-72
2022/05/26 12:52:34;;;;;;;6.78;3.90;;;23.00;46.00;;;;;;605266;235;26592;-71
2022/05/26 12:55:03;;;;;;;14.07;5.53;;;22.90;45.90;;;;;;608632;235;26875;-72
2022/05/26 12:57:30;;;;;;;8.40;4.25;;;23.40;45.80;;;;;;603545;238;26813;-72
2022/05/26 13:00:09;;;;;;;8.52;3.60;;;24.10;45.80;;;;;;601945;237;26652;-70
2022/05/26 13:02:38;;;;;;;9.50;4.45;;;24.50;44.80;;;;;;603762;237;26589;-73
2022/05/26 13:05:04;;;;;;;8.27;3.83;;;23.60;45.30;;;;;;602850;235;26882;-77
2022/05/26 13:07:31;;;;;;;9.90;4.05;;;22.80;46.20;;;;;;602579;237;26602;-80
2022/05/26 13:09:59;;;;;;;7.45;3.65;;;22.50;46.90;;;;;;604885;237;26838;-79
2022/05/26 13:12:26;;;;;;;11.25;4.72;;;21.80;47.00;;;;;;602980;237;26656;-72
2022/05/26 13:14:53;;;;;;;8.70;4.93;;;21.20;46.80;;;;;;603699;237;26882;-72
2022/05/26 13:17:24;;;;;;;7.50;5.00;;;20.80;47.30;;;;;;602026;237;26596;-73
2022/05/26 13:19:51;;;;;;;28.55;20.73;;;20.40;48.00;;;;;;602421;237;26585;-71
2022/05/26 13:22:29;;;;;;;115.60;99.18;;;20.50;47.90;;;;;;604192;238;26549;-69
2022/05/26 13:24:55;;;;;;;184.10;152.38;;;20.50;47.90;;;;;;601757;236;26631;-69
2022/05/26 13:27:23;;;;;;;228.12;190.48;;;22.90;45.20;;;;;;604498;236;27205;-74
2022/05/26 13:29:50;;;;;;;261.27;218.40;;;22.80;45.10;;;;;;604283;232;26827;-73
2022/05/26 13:34:53;;;;;;;354.08;298.33;;;24.90;42.70;;;;;;605643;236;26607;-66
2022/05/26 13:37:22;;;;;;;374.98;321.05;;;23.30;43.50;;;;;;604753;235;26573;-66